AirNav   TITAN Aviation Fuels
 
 810 users online  

5MN9 Chanlin Field Airport
Middle River, Minnesota, USA

GOING TO MIDDLE RIVER?


FAA INFORMATION EFFECTIVE 01 DECEMBER 2022

Location

FAA Identifier: 5MN9
Lat/Long: 48-25-24.8990N 096-07-44.0740W
48-25.414983N 096-07.734567W
48.4235831,-96.1289094
(estimated)
Elevation: 1147 ft. / 350 m (estimated)
Variation: 06E (1985)
From city: 2 miles SE of MIDDLE RIVER, MN
Time zone: UTC -6 (UTC -5 during Daylight Saving Time)
Zip code: 56737

Airport Operations

Airport use: Private use. Permission required prior to landing
Activation date: 03/1990
Control tower: no
ARTCC: MINNEAPOLIS CENTER
FSS: PRINCETON FLIGHT SERVICE STATION
Attendance: UNATNDD
Wind indicator: yes
Segmented circle: no

Nearby radio navigation aids

VOR radial/distance  VOR name  Freq  Var
TVFr358/21.4THIEF RIVER FALLS VOR/DME114.4508E
ROXr209/31.1ROSEAU VOR/DME108.8005E

Airport Services

Runway Information

Runway 18/36

Dimensions: 2400 x 75 ft. / 732 x 23 m
Surface: turf
RUNWAY 18  RUNWAY 36
Traffic pattern: leftleft
Obstructions: 35 ft. pline, 350 ft. from runwaynone

Airport Ownership and Management from official FAA records

Ownership: Privately-owned
Owner: CHUCK CHAPLINSKI
15901 380TH STREET NE
MIDDLE RIVER, MN 56737
Phone 218-222-3355

Airport Operational Statistics

Aircraft based on the field: 1
Single engine airplanes: 1
    

Additional Remarks

DO NOT CHART PER MINNESOTA DEPARTMENT OF TRANSPORTATION
FOR CD CTC MINNEAPOLIS ARTCC AT 651-463-5588.

Instrument Procedures

There are no published instrument procedures at 5MN9.

Some nearby airports with instrument procedures:

KTVF - Thief River Falls Regional Airport (22 nm S)
D37 - Warren Municipal Airport (27 nm SW)
KROX - Roseau Municipal Airport/Rudy Billberg Field (31 nm NE)
48Y - Piney Pinecreek Border Airport (35 nm N)
KHCO - Hallock Municipal Airport (38 nm NW)
 
Loc | Ops | Rwys | IFR | FBO | Links
Com | Nav | Svcs | Stats | Notes
Area around 5MN9 (Chanlin Field Airport)
 
Road maps at: MapQuest Bing Google
 
Aerial photo
No photo
 
Sectional chart

 
Airport distance calculator
Flying to Chanlin Field Airport? Find the distance to fly.

From to 5MN9

Sunrise and sunset
Times for 03-Dec-2022
 Local
(UTC-6)
 Zulu
(UTC)
Morning civil twilight07:2213:22
Sunrise07:5813:58
Sunset16:3022:30
Evening civil twilight17:0623:06

Current date and time
Zulu (UTC)  04-Dec-2022 03:21:49
Local (UTC-6)  03-Dec-2022 21:21:49
 
METAR
KTVF 
21nm S 
040256Z AUTO 22011KT 10SM CLR M16/M18 A3009 RMK AO2 SLP226 T11611178 58017 FZRANO
KROX 
31nm NE 
040255Z AUTO 21008KT 10SM CLR M16/M19 A3005 RMK AO2
KHCO 
37nm NW 
040255Z AUTO 19011KT 10SM BKN120 M15/M17 A3006 RMK AO2
KCKN 
40nm SW 
040255Z 18004KT 10SM M17/M19 A3013 RMK AO2
TAF
KTVF 
21nm S 
031722Z 0318/0418 22016KT P6SM BKN080 FM032300 20008KT P6SM SCT100 FM040800 25010KT P6SM FEW250 FM041700 23015G25KT P6SM FEW200 WS020/27050KT
NOTAMs
Click for the latest NOTAMs
NOTAMs are issued by the DoD/FAA and will open in a separate window not controlled by AirNav.

 

 
 

Would you like to see your business listed on this page?

 If your business provides an interesting product or service to pilots, flight crews, aircraft, or users of the Chanlin Field Airport, you should consider listing it here.  To start the listing process, click on the button below
 
Add a business
 

Other Pages about Chanlin Field Airport

Update a link
 
Copyright © AirNav, LLC. All rights reserved. Privacy Policy  Contact